You are not logged in. Log in now.

CarFit Events

Thank you for your interest in participating in a CarFit event. Here are a couple of things you should know:

To participate in this event, you may use the reservation phone number listed, or register online by clicking on the event date/time for which you are interested.

Date/TimeLocationContact PersonReservation Phone
7/17/2017: 1pm-3pmWashington Crossing, PAKim Everett215-710-7078
7/17/2017: 9 A.M. - 1 P.M.Swiftwater, PATracy Fox570-954-8310
7/17/2017: 9 am - 1 pmKnoxville, TNDon Lindsey(865) 329-8892
7/18/2017: 11am - 2pmTulsa, OKMark Madeja918-748-1074
7/18/2017: 10am-12Hackettstown , NJJackie 908-887-5736
7/19/2017: 9 am- 12 pmSandusky, OHServing Our Seniors419-624-1856
7/19/2017: 10 AM - 2 PMDavenport, IAGretchen Cluff563-421-1480
7/19/2017: 4pm - 5pmtestevent, CA
7/20/2017: 9 am - noonLong Beach, CADamaris Pelayo562-491-9811
7/20/2017: 1 pm - 4pmtest, CO
7/22/2017: 9am - 1pmLittleton, COElizabeth Kelly(970) 443-1639
7/24/2017: 1:00-4:00pmOkemos, MIMickie Kreft517.364.3743
7/26/2017: 10 amSpring Grove, PA
7/26/2017: 3p - 5pLynchburg, VAJoni Organ (Nancy Lo)434-455-4115
7/27/2017: 8am-11amAnaheim , CAMonica Pelaez(714) 885-2300
7/27/2017: 10:30 am- 1pmTemple, TXLawrence Ryan254-724-4714
7/29/2017: 10:00 am - 1:00 pmHillsboro, ORClark Upton540-830-1189
8/1/2017: 9 am - 12 pmBelton, TXRavonne McCray2542026539
8/1/2017: 1800-2000Danielsville, PAJonathan Roth 610-760-8800
8/3/2017: 1pm-3pmLanghorne , PAKim Everett215-710-7078
8/4/2017: 12-2 pmPittsburgh, PATerri Rae Anthony412-418-5977
8/8/2017: 10 am - 12 noonColonia, NJPauline732-726-6261
8/9/2017: 9:00 tp 12:30Sunnyvale 94087, CALes Schreiber408-316-8654
8/11/2017: 10a-12pPrinceton, NJBarbara Vaning888.897.8979
8/11/2017: 10a-1:30pBowling Green, OHDanielle Brogley419-353-5661
8/11/2017: 9-12pSuffolk, VADenise Brown (Nancy Lo)757-923-5513
8/14/2017: 11am -1pmAnchorage , AKBeth Schuerman907-929-3939
8/14/2017: 11:30am-1:30pmAnchorage, AKBeth Schuerman907-929-3939
8/15/2017: 9:00 am-11:30 amCelina, OHAmy Buening419-586-1645
8/17/2017: 1:30pm - 3:30pmDenver, COSylvia Cordy303.991.5740
8/17/2017: 9am-noonLake Zurich, ILSusan Dillon847-438-9160
8/19/2017: 10 am - 3 pmStow, OHAmy Smith or Kathy McConnell330-689-5100
8/20/2017: 1 pm - 4 pm Gladstone, OR Shari Wilson, (503) 421-8224 (503) 655-7701
8/21/2017: 1pm-3pmWashington Crossing , PAKim Everett215-710-7078
8/21/2017: 10a-12:30pLafayette, COChristina Norman3036894623
8/22/2017: 12:30 - 3:30Navarre , OHPaola Dorto - AAA Ohio Auto330 455 6761
8/24/2017: 9am-11am by appt. onlyLehigh Acres, FLAnn Kelly 239-258-3276
8/24/2017: 1pm - 3pm - By Appointment OnlyN. Ft. Myers, FLMichelle Sargis239-258-3278
8/26/2017: 9 am-12 pmBernalillo, NMMark McCracken505-856-6143
8/31/2017: 10am-2 pmFairfield Glade, TNKate Self931-484-8735
9/5/2017: 12:30 pm - 2:30 pmChester, NJMartha Toledo908-879-2202
9/7/2017: 1pm - 4 pmCranberry Township, PATerri Rae Anthony412-418-5977
9/7/2017: 1pm-3pmLanghorne , PAKim Everett215-710-7078
9/7/2017: 10 A.M -1 P.MClyde, OHJennifer Siler- AAA Ohio Club419 332 2602
9/9/2017: 9 am - 1 pmKnoxville, TNDon LindseyTBD
9/12/2017: 9:30 am- 2:30 pmArlington, VAJennifer Stahl703.465.5017
9/12/2017: 1:00 - 4:00 pmHillsboro, ORClark Upton503-615-1090
9/12/2017: 11 a.m. - 1:30 p.m.Bucyrus, OHCandace Kalb- AAA Ohio Auto419 562 9969
9/13/2017: 10 am - 12 noonMorris Plains, NJ973-821-3397
9/14/2017: 10 am - 12 noonnSomerset, NJ732-873-1991 Option #4
9/14/2017: 9am-11am by appt. onlyLehigh Acres, FLAnn Kelly239-258-3276
9/14/2017: 1pm - 3pm By Appointment OnlyN. Ft. Myers, FLMichelle Sargis239-258-3278
9/14/2017: 10:00 am - 2:00 pmBoulder, COJoan DePuy303-441-4150
9/14/2017: 10am-12pmCloster, NJCloster Library201-768-4197
9/15/2017: 9 am - 11 amHamilton, NJBetsy Muessig888.897.8979
9/15/2017: 10am-2pmCherryville, PAJonathan Roth610-760-8800
9/15/2017: 9:00am-1:00pmWaverly, OHAmanda Elliott740-947-5555, ext. 7303
9/15/2017: 10 am - 1 pmJanesville, WIRyan Booth608 757-5408
9/16/2017: 9 am - 12amArlington Heights, ILFront desk847-253-5532
9/16/2017: 1:30-4:00Surrey, BCSarah Slocombe18004342268 x245
9/18/2017: 1pm-3pmWashington Crossing, PAKim Everett215-710-7078
9/19/2017: 9 a.m. - 12 p.m.Topeka, KSStormont Vail Health Connections785-354-5225
9/19/2017: 1-3pmBeaver, PATerri Rae Anthony412-418-5977
9/20/2017: 1-3 pmElwood City, PATerri Rae Anthony412-418-5977
9/20/2017: 10a-2pPalmyra, VATamala Hirt (Nancy Lo)904-629-5651
9/21/2017: 9 am - noonTustin, CAJorge Morales714-573-3321
9/21/2017: 9am - 12pmVictoria, TXMark Hayden3616485214
9/22/2017: 9-12pMartinsville, VAJaime Turner (Nancy Lo)276-634-1202
9/22/2017: 11:00am-12:30pmColumbia, PATracy Linn717-840-2330
9/22/2017: 9:00am-1:00pmRedondo Beach, CAAaron Fishman310-318-0650
9/23/2017: 8 AM - 11 AMWestmont, ILGeorge Goodwin630-258-2342
9/23/2017: 8 AM-12 PM Colfax, WABonnie Kirkpatrick 509-397-5733
9/23/2017: 9 am - 12 pmWest Hartford, CTLea Ann860-255-4170
9/23/2017: 10:00 am - 1:00 pmIthaca, NYEleanor Liebson, OTR/L, DRS607-274-4159
9/23/2017: 10:00 am - 1:00 pmIthaca, NYEleanor Liebson, OTR/L, DRS607-274-4159
9/25/2017: 10 am - 1 pmPocatello, IDTed Peterson208-282-2590
9/25/2017: 9 am-2 pmGrapevine, TXPaulette Golden(817)824-424-4937
9/26/2017: 10 am - 12 noonNew Milford, NJ201-599-7565
9/28/2017: 9am - noonSpringfield, ILCharlene
9/30/2017: 9 a.m. - 1 p.m.Mt. Kisco, NYKathleen Golisz914-674-7814
10/3/2017: 1230PMTYRONE, PAROBERT DEWEESE814-931-7270
10/4/2017: 11:30- 1:00PMTiffin, OHDianne Culver410-448-9774
10/5/2017: 1pm-3pmLanghorne , PAKim Everett215-710-7078
10/5/2017: 430-630PMCrete, NELaura Anderson, OTD, OTR/L402-826-6541
10/6/2017: 9a - 12pCulpeper, VAPastor Brad Hales (Nancy Lo)540-825-1376
10/7/2017: 9:00-12:00Sleepy Hollow, NYSusan O'Reilly or Michelle Dunn914-366-3705
10/10/2017: 1230PMEAST FREEDOM, PAROBERT DEWEESE814-931-7270
10/11/2017: 10am-11:30amFort Myers , FLAnn Kelly/Barbara Brice239-939-6500 ext 3248
10/11/2017: 11 a.m - 1 p.mTiffin, OHCourtney Stine419 447 0551
10/14/2017: 8:30am - noonLisle, ILCharlene Sligting
10/16/2017: 1pm-3pmWashington Crossing, PAKim Everett215-710-7078
10/17/2017: 8 am - 10 amSun Lakes, AZ480-895-7133
10/17/2017: 10:00 am - 2:00 pmBoulder , COJoan DePuy303-441-4150
10/19/2017: 1-3pmVirginia Beach, VAKatharine Beachboard757-233-3889
10/20/2017: 10a-2pPort Clinton, OHSandy Fandrech419-734-9494
10/21/2017: 10 am -12 noonWoodbridge, NJFran Kulman752-855-0600 X5024
10/26/2017: 9am - 12pmLargo, FLOfc. Quattlebaum727-586-7351
11/2/2017: 1pm-3pmLanghorne, PAKim Everett215-710-7078
11/2/2017: 10am-2pmLa Mesa, CAStephanie Keith858-637-7331
11/11/2017: 9am-12pmCoppell, TXDaniel Armbruster469-221-8217
11/15/2017: 10:00am-11:30amFort Myers, FLAnn Kelly/Barbara Brice239-939-6500 ext 3248
11/20/2017: 1pm-3pmWashington Crossing, PAKim Everett215-710-7078
12/1/2017: 9 am - 12 pmBelton, TXRavonne McCray2542026539
12/2/2017: 10 AM - 12 PMPENSACOLA, FLGabrielle Watkins609-440-3242
12/13/2017: 10:00am-11:30amFort Myers , FLAnn Kelly/Barbara Brice239-939-6500 ext 3248
1/10/2018: 10:00am-11:30amFort Myers , FLAnn Kelly/Barbara Brice 239-939-6500 ext 3248
2/14/2018: 10:00am-11:30amFort Myers, FLAnn Kelly/Barbara Brice239-939-6500 ext 3248
3/14/2018: 10:00am-11:30amFort Myers, FLAnn Kelly/Barbara Brice239-939-6500 ext 3248